Tiempo atmosférico en la estación meteorológica de Alcañices, Zamora (840 m.)

Fecha
DESCASC
Temp. máxima en grados centígrados (hora)
DESCASC
Temp. mínima en grados centígrados (hora)
DESCASC
Temp. media en grados centígrados
DESCASC
Racha de viento máxima en m/sg (hora)
DESCASC
Velocidad máxima media en intervalos de 10 minutos(hora)
DESCASC
Precipitaciones diarias en mm
DESCASC
Precipitaciones de 00:00 a 06:00 en mm
DESCASC
Precipitaciones de 06:00 a 12:00 en mm
DESCASC
Precipitaciones de 12:00 a 18:00 en mm
DESCASC
Precipitaciones de 18:00 a 24:00 en mm
DESCASC
10-12-2017 10 (14:40) 3.1 (23:50) 6.5 23.33 (21:50) 14.72 (22:30) 43.2 1.4 1.6 6 34.2
09-12-2017 11.6 (16:10) 6.3 (06:10) 9 11.94 (17:50) 8.61 (18:50) 0.6 0 0 0 0.6
08-12-2017 9.3 (21:20) 3.7 (01:00) 6.5 7.5 (21:40) 5 (13:50) 0 0 0 0 0
07-12-2017 9.9 (14:00) -3.7 (-00:0) 3.1 7.78 (14:50) 5.83 (14:50) 1.2 0 0 0 1.2
06-12-2017 3 (16:00) -7.2 (-00:0) -2.1 3.61 (17:40) 3.33 (02:20) 0 0 0 0 0
05-12-2017 12.5 (16:00) -3.2 (-00:0) 4.6 5.28 (04:00) 4.44 (03:50) 0 0 0 0 0
04-12-2017 8.2 (14:20) -4.3 (-00:0) 1.9 8.61 (15:10) 6.11 (15:10) 0 0 0 0 0
03-12-2017 8.3 (11:30) -4.8 (-00:0) 1.8 7.22 (14:30) 4.44 (14:30) 0 0 0 0 0
02-12-2017 10 (13:20) -4.1 (-00:0) 3 9.17 (15:00) 6.67 (15:20) 0 0 0 0 0
01-12-2017 10.1 (14:10) -3 (-00:0) 3.6 13.89 (13:30) 9.17 (13:10) 0 0 0 0 0
30-11-2017 11.6 (15:00) -3.1 (-00:0) 4.3 6.67 (16:30) 5 (12:50) 0 0 0 0 0
29-11-2017 10.6 (15:50) -3.9 (-00:0) 3.4 10.28 (14:40) 5.28 (16:00) 0 0 0 0 0
28-11-2017 9.2 (13:50) -1.3 (-00:0) 3.9 7.22 (13:50) 4.72 (14:00) 0 0 0 0 0
27-11-2017 12.6 (16:00) -3.2 (-00:0) 4.7 5.83 (10:40) 4.17 (00:50) 0 0 0 0 0
26-11-2017 7.9 (14:30) -2.3 (-00:0) 2.8 9.44 (12:20) 6.94 (11:40) 0 0 0 0 0
25-11-2017 12.3 (15:10) 2.5 (00:00) 7.4 9.72 (12:30) 6.67 (12:50) 15 15 0 0 0
24-11-2017 13.6 (14:50) 8.5 (00:00) 11.1 12.78 (04:50) 7.78 (04:50) 6 3.2 0 0 2.8
23-11-2017 14.6 (15:20) 8.5 (00:00) 11.6 12.5 (23:10) 7.78 (23:20) 1.2 0.6 0.4 0.2 0
22-11-2017 15.1 (14:30) 0.1 (00:00) 7.6 13.89 (19:00) 8.89 (19:20) 0 0 0 0 0
21-11-2017 17.6 (14:40) 0.7 (00:00) 9.2 6.11 (20:40) 4.44 (20:40) 0 0 0 0 0
20-11-2017 18.2 (14:30) 0.2 (00:00) 9.2 4.72 (04:10) 4.44 (04:30) 0 0 0 0 0
19-11-2017 17.2 (15:30) 1.2 (00:00) 9.2 6.39 (04:30) 5.28 (04:30) 0 0 0 0 0
18-11-2017 16.7 (14:40) 2.9 (00:00) 9.8 8.61 (12:30) 6.67 (11:50) 0 0 0 0 0
17-11-2017 19.7 (14:50) 3.8 (00:00) 11.8 6.11 (11:40) 4.72 (08:20) 0 0 0 0 0
16-11-2017 18.4 (15:30) 2.3 (00:00) 10.3 5 (13:40) 4.17 (05:10) 0 0 0 0 0
15-11-2017 19.2 (16:10) -1.1 (-00:0) 9.1 9.17 (01:20) 6.67 (01:10) 0 0 0 0 0

Gráficas

Temp. máximas Temp. mínimas Temp. medias Precipitaciones Rachas de viento máximas Velocidades máximas media en intervalos de 10 minutos

Datos horarios

Fecha y hora oficial Temperatura (ºC) Velocidad del viento (km/h) Dirección del viento Racha (km/h) Dirección de racha Precipitación (mm) Presión (hPa) Tendencia (hPa) Humedad (%)
2017-12-14 23:00:00 6.6 27 Oeste 51 Oeste 0 -- -- 89
2017-12-14 22:00:00 7.1 35 Oeste 54 Oeste 0 -- -- 87
2017-12-14 21:00:00 8.2 29 Oeste 45 Oeste 0 -- -- 93
2017-12-14 20:00:00 9.1 23 Oeste 43 Sudoeste 0.4 -- -- 98
2017-12-14 19:00:00 9.6 23 Oeste 46 Oeste 0 -- -- 100
2017-12-14 18:00:00 9.7 25 Sudoeste 49 Sudoeste 0 -- -- 99
2017-12-14 17:00:00 10.2 33 Sudoeste 52 Sudoeste 0 -- -- 97
2017-12-14 16:00:00 10.6 25 Oeste 49 Sudoeste 0 -- -- 95
2017-12-14 15:00:00 10.7 30 Sudoeste 51 Sudoeste 0 -- -- 96
2017-12-14 14:00:00 10.5 28 Sudoeste 46 Oeste 0.2 -- -- 98
2017-12-14 13:00:00 10.5 29 Sudoeste 45 Sudoeste 0 -- -- 100
2017-12-14 12:00:00 10.6 28 Oeste 44 Sudoeste 0 -- -- 100
2017-12-14 11:00:00 10 18 Sudoeste 38 Sudoeste 0.2 -- -- 100
2017-12-14 10:00:00 9.6 23 Sudoeste 44 Sudoeste 0 -- -- 100
2017-12-14 09:00:00 9.6 25 Sudoeste 41 Sudoeste 0 -- -- 100
2017-12-14 08:00:00 9.3 24 Sudoeste 37 Sudoeste 0 -- -- 100
2017-12-14 07:00:00 9.2 22 Sudoeste 37 Sudoeste 0 -- -- 100
2017-12-14 06:00:00 9.1 24 Sudoeste 37 Sudoeste 0 -- -- 100
2017-12-14 05:00:00 9.1 23 Sudoeste 45 Sudoeste 0 -- -- 100
2017-12-14 04:00:00 8.9 25 Sudoeste 41 Sudoeste 0.2 -- -- 100
2017-12-14 03:00:00 8.2 19 Sudoeste 33 Sudoeste 0 -- -- 100
2017-12-14 02:00:00 8.1 23 Sudoeste 37 Sudoeste 0 -- -- 100
2017-12-14 01:00:00 8 23 Sudoeste 39 Sudoeste 0 -- -- 100
2017-12-14 00:00:00 7.6 23 Sudoeste 35 Sudoeste 0 -- -- 100
2017-12-13 23:00:00 7.4 21 Sudoeste 30 Sudoeste 0 -- -- 100
2017-12-13 22:00:00 6.8 21 Sudoeste 33 Sudoeste 0 -- -- 100
2017-12-13 21:00:00 6.9 18 Sudoeste 32 Sudoeste 0 -- -- 100
2017-12-13 20:00:00 7 23 Sudoeste 36 Sudoeste 0 -- -- 100
2017-12-13 19:00:00 6.6 24 Sudoeste 33 Sudoeste 0 -- -- 100
2017-12-13 18:00:00 6.5 19 Sudoeste 30 Sudoeste 0 -- -- 100
2017-12-13 17:00:00 6.3 17 Sudoeste 37 Oeste 0 -- -- 100
2017-12-13 16:00:00 5.8 22 Sudoeste 33 Oeste 0 -- -- 100
2017-12-13 15:00:00 5.5 25 Sudoeste 35 Oeste 0 -- -- 100
2017-12-13 14:00:00 5.2 24 Sudoeste 39 Sudoeste 0 -- -- 100
2017-12-13 13:00:00 4.8 22 Sudoeste 37 Sudoeste 0 -- -- 100
2017-12-13 12:00:00 4.3 18 Sudoeste 27 Sudoeste 0 -- -- 100
2017-12-13 11:00:00 3.7 17 Oeste 27 Sudoeste 0 -- -- 100
2017-12-13 10:00:00 2.8 16 Sudoeste 28 Sudoeste 0 -- -- 100
2017-12-13 09:00:00 2.3 13 Sudoeste 17 Sudoeste 0 -- -- 100
2017-12-13 08:00:00 2.3 9 Oeste 15 Sudoeste 0 -- -- 99
2017-12-13 07:00:00 2.5 12 Sudoeste 23 Sudoeste 0 -- -- 99
2017-12-13 06:00:00 2.2 14 Sudoeste 22 Sudoeste 0 -- -- 99
2017-12-13 05:00:00 2 12 Sudoeste 18 Sudoeste 0 -- -- 100
2017-12-13 04:00:00 1.6 13 Sudoeste 17 Sudoeste 0 -- -- 100
2017-12-13 03:00:00 0.8 13 Sudoeste 15 Sudoeste 0 -- -- 100
2017-12-13 02:00:00 1.2 13 Sudoeste 19 Sudoeste 0 -- -- 100
2017-12-13 01:00:00 1.2 12 Sudoeste 17 Sudoeste 0 -- -- 99
2017-12-13 00:00:00 1.7 11 Sudoeste 16 Sudoeste 0 -- -- 97
2017-12-12 23:00:00 1.3 10 Sudoeste 14 Sudoeste 0 -- -- 96
2017-12-12 22:00:00 1.1 6 Sudoeste 14 Oeste 0 -- -- 93
2017-12-12 21:00:00 2.1 8 Oeste 19 Oeste 0 -- -- 93
2017-12-12 20:00:00 2.7 13 Oeste 22 Oeste 0 -- -- 89
2017-12-12 19:00:00 3.2 11 Oeste 19 Oeste 0 -- -- 87
2017-12-12 18:00:00 3.7 12 Oeste 25 Oeste 0 -- -- 82
2017-12-12 17:00:00 6.3 16 Oeste 28 Oeste 0 -- -- 71
2017-12-12 16:00:00 8.7 14 Oeste 26 Noroeste 0 -- -- 60
2017-12-12 15:00:00 8.5 14 Oeste 26 Noroeste 0 -- -- 57
2017-12-12 14:00:00 8.1 12 Noroeste 22 Noroeste 0 -- -- 63
2017-12-12 13:00:00 6.5 11 Oeste 20 Oeste 0 -- -- 75
2017-12-12 12:00:00 4.7 15 Oeste 24 Oeste 0 -- -- 81
2017-12-12 11:00:00 3.6 14 Oeste 20 Oeste 0 -- -- 84
2017-12-12 10:00:00 0.9 10 Sudoeste 14 Sudoeste 0 -- -- 94
2017-12-12 09:00:00 -1.6 13 Sudoeste 17 Sudoeste 0 -- -- 99
2017-12-12 08:00:00 -1.3 13 Oeste 15 Oeste 0 -- -- 96
2017-12-12 07:00:00 -1.3 10 Sudoeste 16 Oeste 0 -- -- 96
2017-12-12 06:00:00 -0.4 12 Sudoeste 15 Sudoeste 0 -- -- 93
2017-12-12 05:00:00 -1.2 9 Sudoeste 17 Oeste 0 -- -- 95
2017-12-12 04:00:00 -0.9 5 Oeste 19 Noroeste 0 -- -- 97
2017-12-12 03:00:00 -0.4 12 Oeste 22 Oeste 0 -- -- 93
2017-12-12 02:00:00 -0.3 14 Noroeste 21 Noroeste 0 -- -- 91
2017-12-12 01:00:00 -0.4 7 Oeste 17 Oeste 0 -- -- 85
2017-12-12 00:00:00 0 8 Noroeste 15 Oeste 0 -- -- 83
2017-12-11 23:00:00 -0.2 10 Oeste 15 Oeste 0 -- -- 86
2017-12-11 22:00:00 -0.6 7 Oeste 13 Noroeste 0 -- -- 85
2017-12-11 21:00:00 0.8 12 Noroeste 27 Noroeste 0 -- -- 74
2017-12-11 20:00:00 1.4 20 Noroeste 39 Noroeste 0 -- -- 74
2017-12-11 19:00:00 1.9 20 Noroeste 33 Noroeste 0 -- -- 74
2017-12-11 18:00:00 3.1 25 Noroeste 37 Noroeste 0 -- -- 65
2017-12-11 17:00:00 4.3 15 Oeste 24 Oeste 0 -- -- 86
2017-12-11 16:00:00 6.2 14 Oeste 33 Oeste 0 -- -- 79
2017-12-11 15:00:00 4 15 Oeste 34 Sudoeste 0 -- -- 95
2017-12-11 14:00:00 3.3 21 Oeste 44 Sudoeste 0 -- -- 99
2017-12-11 13:00:00 3.2 24 Sudoeste 35 Sudoeste 0.2 -- -- 98
2017-12-11 12:00:00 3.2 22 Sudoeste 41 Sudoeste 0 -- -- 98
2017-12-11 11:00:00 3.1 22 Sudoeste 35 Sudoeste 0 -- -- 97
2017-12-11 10:00:00 2.3 19 Sudoeste 32 Oeste 0 -- -- 99
2017-12-11 09:00:00 1.5 23 Sudoeste 32 Sudoeste 0 -- -- 100
2017-12-11 08:00:00 1.9 17 Sudoeste 23 Sudoeste 0 -- -- 99
2017-12-11 07:00:00 2.2 16 Oeste 37 Oeste 0 -- -- 97
2017-12-11 06:00:00 3 27 Oeste 49 Oeste 0.6 -- -- 98
2017-12-11 05:00:00 3.5 28 Sudoeste 47 Sudoeste 0.2 -- -- 97
2017-12-11 04:00:00 4.3 26 Sudoeste 55 Oeste 0.4 -- -- 98
2017-12-11 03:00:00 4.7 19 Oeste 41 Sudoeste 1.6 -- -- 100
2017-12-11 02:00:00 4.2 37 Sudoeste 64 Sudoeste 5.4 -- -- 98
2017-12-11 01:00:00 4.8 27 Sudoeste 49 Oeste 5.2 -- -- 100
2017-12-11 00:00:00 3.8 25 Oeste 82 Sudoeste 11 -- -- 100
2017-12-10 23:00:00 9.4 46 Sudoeste 83 Sur 6.2 -- -- 99
2017-12-10 22:00:00 9.7 49 Sudoeste 84 Sur 4.4 -- -- 99
2017-12-10 21:00:00 9.4 44 Sudoeste 71 Sudoeste 5 -- -- 100
2017-12-10 20:00:00 9.2 41 Sudoeste 74 Sudoeste 4.8 -- -- 100
2017-12-10 19:00:00 9.1 41 Sudoeste 76 Sudoeste 2.8 -- -- 100
2017-12-10 18:00:00 9.1 44 Sudoeste 80 Sudoeste 2.4 -- -- 99
2017-12-10 17:00:00 9.3 42 Sudoeste 64 Sudoeste 2 -- -- 99
2017-12-10 16:00:00 9.7 42 Sudoeste 72 Sudoeste 0.2 -- -- 98
2017-12-10 15:00:00 10 45 Sudoeste 79 Sudoeste 0.2 -- -- 96
2017-12-10 14:00:00 9.8 43 Sudoeste 66 Sudoeste 0.6 -- -- 98
2017-12-10 13:00:00 9.6 44 Sudoeste 68 Sudoeste 0.6 -- -- 100
2017-12-10 12:00:00 9.4 41 Sudoeste 75 Sudoeste 0.6 -- -- 100
2017-12-10 11:00:00 9.3 37 Sudoeste 63 Sudoeste 0.2 -- -- 100
2017-12-10 10:00:00 8.8 30 Sudoeste 51 Sudoeste 0 -- -- 100
2017-12-10 09:00:00 8.4 29 Sudoeste 48 Sudoeste 0.4 -- -- 100
2017-12-10 08:00:00 8.1 30 Sudoeste 50 Sudoeste 0.2 -- -- 100
2017-12-10 07:00:00 8.3 29 Sudoeste 46 Sudoeste 0.2 -- -- 100
2017-12-10 06:00:00 8.3 25 Sudoeste 45 Sudoeste 0.2 -- -- 100
2017-12-10 05:00:00 8.2 22 Sudoeste 35 Sudoeste 0.2 -- -- 100
2017-12-10 04:00:00 7.9 17 Sudoeste 33 Sudoeste 0.6 -- -- 100
2017-12-10 03:00:00 8.1 15 Sudoeste 32 Sudoeste 0.2 -- -- 100
2017-12-10 02:00:00 8.2 22 Sudoeste 38 Sudoeste 0 -- -- 100
2017-12-10 01:00:00 8.5 21 Sudoeste 39 Oeste 0.2 -- -- 100
2017-12-10 00:00:00 8.8 22 Oeste 39 Oeste 0.6 -- -- 100
2017-12-09 23:00:00 9.1 26 Sudoeste 39 Sudoeste 0 -- -- 99
2017-12-09 22:00:00 9.3 22 Sudoeste 39 Sudoeste 0 -- -- 99
2017-12-09 21:00:00 9.4 26 Oeste 41 Sudoeste 0 -- -- 97
2017-12-09 20:00:00 9.4 18 Sudoeste 40 Oeste 0 -- -- 95
2017-12-09 19:00:00 9.9 31 Oeste 43 Oeste 0 -- -- 93
2017-12-09 18:00:00 10.1 24 Sudoeste 43 Oeste 0 -- -- 94
2017-12-09 17:00:00 10.6 23 Sudoeste 37 Sudoeste 0 -- -- 92
2017-12-09 16:00:00 11.1 18 Sudoeste 28 Sudoeste 0 -- -- 90
2017-12-09 15:00:00 9.8 17 Oeste 36 Oeste 0 -- -- 99
2017-12-09 14:00:00 9.6 21 Oeste 34 Oeste 0 -- -- 98
2017-12-09 13:00:00 10.2 19 Oeste 32 Oeste 0 -- -- 95
2017-12-09 12:00:00 9.4 16 Sudoeste 33 Oeste 0 -- -- 98
2017-12-09 11:00:00 9.7 18 Oeste 30 Sudoeste 0 -- -- 100
2017-12-09 10:00:00 8.3 16 Oeste 30 Oeste 0 -- -- 100
2017-12-09 09:00:00 7.9 15 Oeste 24 Oeste 0 -- -- 100
2017-12-09 08:00:00 7.4 14 Oeste 21 Oeste 0 -- -- 100
2017-12-09 07:00:00 7 13 Oeste 19 Oeste 0 -- -- 100
2017-12-09 06:00:00 6.5 8 Oeste 12 Oeste 0 -- -- 100
2017-12-09 05:00:00 6.8 5 Oeste 12 Oeste 0 -- -- 100
2017-12-09 04:00:00 7 6 Oeste 10 Oeste 0 -- -- 100
2017-12-09 03:00:00 6.8 8 Oeste 15 Sudoeste 0 -- -- 100
2017-12-09 02:00:00 6.5 12 Sudoeste 15 Oeste 0 -- -- 100
2017-12-09 01:00:00 7.7 9 Oeste 13 Oeste 0 -- -- 100
2017-12-09 00:00:00 7.2 8 Sudoeste 12 Oeste 0 -- -- 100
2017-12-08 23:00:00 8.2 10 Oeste 23 Oeste 0 -- -- 100
2017-12-08 22:00:00 9 14 Oeste 27 Oeste 0 -- -- 100
2017-12-08 21:00:00 9 11 Oeste 26 Oeste 0 -- -- 100
2017-12-08 20:00:00 8.9 18 Sudoeste 25 Sudoeste 0 -- -- 100
2017-12-08 19:00:00 8.7 14 Sudoeste 19 Sudoeste 0 -- -- 100
2017-12-08 18:00:00 8.3 13 Sudoeste 21 Sudoeste 0 -- -- 100
2017-12-08 17:00:00 8.3 13 Sudoeste 22 Sudoeste 0 -- -- 100
2017-12-08 16:00:00 8 14 Sudoeste 20 Sudoeste 0 -- -- 100
2017-12-08 15:00:00 7.6 14 Sudoeste 23 Sudoeste 0 -- -- 100
2017-12-08 14:00:00 7.4 18 Sudoeste 23 Sudoeste 0 -- -- 100
2017-12-08 13:00:00 6.7 14 Sudoeste 21 Sudoeste 0 -- -- 100
2017-12-08 12:00:00 5.7 12 Sudoeste 18 Sudoeste 0 -- -- 100
2017-12-08 11:00:00 5.2 10 Sudoeste 14 Sudoeste 0 -- -- 100
2017-12-08 10:00:00 5.1 5 Sudoeste 12 Sudoeste 0 -- -- 100
2017-12-08 09:00:00 4.7 8 Sudoeste 15 Sudoeste 0 -- -- 100
2017-12-08 08:00:00 4.6 5 Sudoeste 18 Sudoeste 0 -- -- 100
2017-12-08 07:00:00 4.4 15 Sudoeste 20 Sudoeste 0 -- -- 100
2017-12-08 06:00:00 4.4 13 Sudoeste 19 Sudoeste 0 -- -- 99
2017-12-08 05:00:00 4.4 12 Sudoeste 18 Sudoeste 0 -- -- 97
2017-12-08 04:00:00 4.5 10 Sudoeste 19 Sudoeste 0 -- -- 92
2017-12-08 03:00:00 4.3 10 Sudoeste 16 Sudoeste 0 -- -- 97
2017-12-08 02:00:00 4.2 13 Sudoeste 18 Sudoeste 0 -- -- 99
2017-12-08 01:00:00 3.7 12 Sudoeste 17 Sudoeste 0 -- -- 95
2017-12-08 00:00:00 3.9 9 Sudoeste 14 Sudoeste 0 -- -- 92
2017-12-07 23:00:00 4 10 Oeste 17 Sudoeste 0.4 -- -- 89
2017-12-07 22:00:00 4.4 12 Oeste 16 Sudoeste 0 -- -- 86
2017-12-07 21:00:00 4 10 Sudoeste 14 Oeste 0.2 -- -- 90
2017-12-07 20:00:00 4.3 12 Oeste 17 Sudoeste 0.4 -- -- 85
2017-12-07 19:00:00 5 9 Oeste 19 Oeste 0.2 -- -- 74
2017-12-07 18:00:00 6.5 10 Oeste 21 Oeste 0 -- -- 58
2017-12-07 17:00:00 6.8 10 Sudoeste 21 Sudoeste 0 -- -- 57
2017-12-07 16:00:00 7.2 9 Sudoeste 27 Oeste 0 -- -- 56
2017-12-07 15:00:00 9.3 19 Sudoeste 28 Oeste 0 -- -- 47
2017-12-07 14:00:00 9.9 15 Sudoeste 23 Sudoeste 0 -- -- 45
2017-12-07 13:00:00 7.9 14 Sudoeste 20 Sudoeste 0 -- -- 59
2017-12-07 12:00:00 5.1 10 Sudoeste 13 Sudoeste 0 -- -- 85
2017-12-07 11:00:00 1.2 6 Este 8 Este 0 -- -- 94
2017-12-07 10:00:00 -0.8 5 Este 11 Nordeste 0 -- -- 98
2017-12-07 09:00:00 -3.4 9 Este 11 Este 0 -- -- 100
2017-12-07 08:00:00 -3.2 6 Nordeste 10 Nordeste 0 -- -- 99
2017-12-07 07:00:00 -3.6 5 Este 9 Este 0 -- -- 100
2017-12-07 06:00:00 -3.4 6 Nordeste 9 Este 0 -- -- 100
2017-12-07 05:00:00 -2.4 4 Este 11 Este 0 -- -- 100
2017-12-07 04:00:00 -3 7 Este 9 Este 0 -- -- 100
2017-12-07 03:00:00 -2.6 4 Nordeste 10 Este 0 -- -- 100
2017-12-07 02:00:00 -2.6 7 Nordeste 10 Nordeste 0 -- -- 100
2017-12-07 01:00:00 -2.6 5 Sudeste 8 Este 0 -- -- 100
2017-12-07 00:00:00 -2.9 4 Este 12 Nordeste 0 -- -- 100
2017-12-06 23:00:00 -3.2 8 Nordeste 13 Este 0 -- -- 100
2017-12-06 22:00:00 -3.4 8 Este 10 Este 0 -- -- 99
2017-12-06 21:00:00 -3.3 6 Nordeste 11 Nordeste 0 -- -- 100
2017-12-06 20:00:00 -3.3 6 Este 12 Nordeste 0 -- -- 99
2017-12-06 19:00:00 -2.6 8 Este 10 Este 0 -- -- 99
2017-12-06 18:00:00 -1.3 8 Este 13 Nordeste 0 -- -- 99
2017-12-06 17:00:00 0.6 5 Nordeste 10 Nordeste 0 -- -- 97
2017-12-06 16:00:00 3 5 Nordeste 11 Este 0 -- -- 93
2017-12-06 15:00:00 2.6 6 Nordeste 9 Este 0 -- -- 95
2017-12-06 14:00:00 -0.4 5 Este 9 Este 0 -- -- 99
2017-12-06 13:00:00 -0.7 5 Este 7 Este 0 -- -- 98
2017-12-06 12:00:00 -1.8 5 Nordeste 7 Nordeste 0 -- -- 99
2017-12-06 11:00:00 -3.2 6 Este 8 Nordeste 0 -- -- 98
2017-12-06 10:00:00 -4.6 6 Nordeste 8 Este 0 -- -- 98
2017-12-06 09:00:00 -5.6 7 Este 9 Este 0 -- -- 97
2017-12-06 08:00:00 -6 6 Nordeste 10 Este 0 -- -- 97
2017-12-06 07:00:00 -6.6 5 Nordeste 10 Este 0 -- -- 96
2017-12-06 06:00:00 -6.6 6 Nordeste 10 Nordeste 0 -- -- 97
2017-12-06 05:00:00 -7.2 6 Nordeste 12 Nordeste 0 -- -- 96
2017-12-06 04:00:00 -6 6 Nordeste 9 Nordeste 0 -- -- 98
2017-12-06 03:00:00 -3.7 6 Nordeste 12 Nordeste 0 -- -- 100
2017-12-06 02:00:00 -3.3 10 Nordeste 12 Nordeste 0 -- -- 98
2017-12-06 01:00:00 -1.8 4 Nordeste 12 Nordeste 0 -- -- 100
2017-12-06 00:00:00 -1.7 9 Nordeste 10 Nordeste 0 -- -- 98
2017-12-05 23:00:00 0.4 2 Sudeste 5 Este 0 -- -- 98
2017-12-05 22:00:00 0.4 3 Este 6 Este 0 -- -- 91
2017-12-05 21:00:00 0.3 0 Calma 4 Nordeste 0 -- -- 97
2017-12-05 20:00:00 0.3 2 Este 13 Sudeste 0 -- -- 91
2017-12-05 19:00:00 1.4 9 Sudeste 12 Sudeste 0 -- -- 86
2017-12-05 18:00:00 3.8 7 Sudeste 9 Sudeste 0 -- -- 75
2017-12-05 17:00:00 9.7 4 Este 9 Este 0 -- -- 55
2017-12-05 16:00:00 12.5 3 Norte 8 Nordeste 0 -- -- 47
2017-12-05 15:00:00 11.3 2 Noroeste 9 Nordeste 0 -- -- 50
2017-12-05 14:00:00 8.5 5 Este 11 Este 0 -- -- 60
2017-12-05 13:00:00 6.6 8 Este 16 Nordeste 0 -- -- 70
2017-12-05 12:00:00 4.9 12 Este 18 Este 0 -- -- 78
2017-12-05 11:00:00 3.2 12 Nordeste 16 Nordeste 0 -- -- 87
2017-12-05 10:00:00 1.2 9 Nordeste 14 Nordeste 0 -- -- 94
2017-12-05 09:00:00 -2.1 10 Nordeste 13 Nordeste 0 -- -- 99
2017-12-05 08:00:00 -2.7 10 Nordeste 12 Nordeste 0 -- -- 100
2017-12-05 07:00:00 -2.6 5 Nordeste 13 Nordeste 0 -- -- 100
2017-12-05 06:00:00 -1.4 8 Nordeste 10 Nordeste 0 -- -- 100
2017-12-05 05:00:00 -1.9 9 Nordeste 17 Nordeste 0 -- -- 100
2017-12-05 04:00:00 -1.1 16 Nordeste 19 Nordeste 0 -- -- 100
2017-12-05 03:00:00 -1.7 12 Nordeste 15 Nordeste 0 -- -- 99
2017-12-05 02:00:00 -1.5 13 Nordeste 16 Nordeste 0 -- -- 99
2017-12-05 01:00:00 -1.6 11 Nordeste 15 Nordeste 0 -- -- 99
2017-12-05 00:00:00 -1.3 13 Nordeste 16 Nordeste 0 -- -- 98
2017-12-04 23:00:00 -0.2 16 Nordeste 20 Nordeste 0 -- -- 96
2017-12-04 22:00:00 -0.4 11 Nordeste 16 Nordeste 0 -- -- 95
2017-12-04 21:00:00 0.3 14 Nordeste 16 Nordeste 0 -- -- 92
2017-12-04 20:00:00 0.7 8 Nordeste 17 Nordeste 0 -- -- 91
2017-12-04 19:00:00 1.9 9 Nordeste 15 Nordeste 0 -- -- 85
2017-12-04 18:00:00 3.3 12 Nordeste 23 Este 0 -- -- 77
2017-12-04 17:00:00 6.6 17 Este 27 Este 0 -- -- 65
2017-12-04 16:00:00 7.6 18 Este 31 Este 0 -- -- 62
2017-12-04 15:00:00 7.9 19 Este 31 Sudeste 0 -- -- 59
2017-12-04 14:00:00 8.1 17 Este 26 Este 0 -- -- 58
2017-12-04 13:00:00 7.3 10 Este 16 Este 0 -- -- 58
2017-12-04 12:00:00 6.1 9 Este 14 Este 0 -- -- 64
2017-12-04 11:00:00 3.4 9 Nordeste 14 Nordeste 0 -- -- 71
2017-12-04 10:00:00 -0.2 11 Nordeste 16 Nordeste 0 -- -- 85
2017-12-04 09:00:00 -3.4 13 Nordeste 14 Nordeste 0 -- -- 94
2017-12-04 08:00:00 -3.3 14 Este 15 Este 0 -- -- 93
2017-12-04 07:00:00 -2.6 6 Este 9 Este 0 -- -- 92
2017-12-04 06:00:00 -2.5 6 Este 13 Nordeste 0 -- -- 93
2017-12-04 05:00:00 -3 11 Nordeste 13 Nordeste 0 -- -- 91
2017-12-04 04:00:00 -1.6 9 Nordeste 12 Nordeste 0 -- -- 87
2017-12-04 03:00:00 -1.2 9 Nordeste 10 Nordeste 0 -- -- 84
2017-12-04 02:00:00 -1.2 4 Norte 8 Norte 0 -- -- 84
2017-12-04 01:00:00 -2.1 3 Sur 9 Norte 0 -- -- 88
2017-12-04 00:00:00 -1.4 5 Norte 8 Norte 0 -- -- 85
2017-12-03 23:00:00 -1.4 3 Noroeste 7 Norte 0 -- -- 86
2017-12-03 22:00:00 -1.2 7 Norte 8 Nordeste 0 -- -- 86
2017-12-03 21:00:00 -1.5 3 Noroeste 9 Nordeste 0 -- -- 86
2017-12-03 20:00:00 0.9 8 Este 10 Este 0 -- -- 76
2017-12-03 19:00:00 1 9 Este 17 Este 0 -- -- 76
2017-12-03 18:00:00 2.3 12 Este 17 Este 0 -- -- 66
2017-12-03 17:00:00 6.1 13 Este 18 Sudeste 0 -- -- 54
2017-12-03 16:00:00 7 10 Este 21 Este 0 -- -- 53
2017-12-03 15:00:00 7.1 13 Este 26 Este 0 -- -- 53
2017-12-03 14:00:00 7.8 15 Este 25 Este 0 -- -- 46
2017-12-03 13:00:00 6.9 13 Nordeste 23 Nordeste 0 -- -- 56
2017-12-03 12:00:00 6.4 9 Nordeste 14 Nordeste 0 -- -- 59
2017-12-03 11:00:00 6.7 4 Norte 7 Noroeste 0 -- -- 63
2017-12-03 10:00:00 3.7 0 Calma 10 Noroeste 0 -- -- 74
2017-12-03 09:00:00 -3.8 9 Noroeste 10 Noroeste 0 -- -- 97
2017-12-03 08:00:00 -4 3 Norte 8 Nordeste 0 -- -- 98
2017-12-03 07:00:00 -3.7 6 Nordeste 12 Este 0 -- -- 96
2017-12-03 06:00:00 -3.1 10 Este 13 Este 0 -- -- 95
2017-12-03 05:00:00 -3.3 12 Este 15 Este 0 -- -- 94
2017-12-03 04:00:00 -2.6 12 Este 17 Este 0 -- -- 91
2017-12-03 03:00:00 -1.8 13 Este 15 Este 0 -- -- 90
2017-12-03 02:00:00 -1 9 Este 11 Este 0 -- -- 80
2017-12-03 01:00:00 -0.4 9 Este 12 Este 0 -- -- 78
2017-12-03 00:00:00 -0.4 8 Norte 12 Norte 0 -- -- 76
2017-12-02 23:00:00 -0.9 8 Norte 13 Norte 0 -- -- 79
2017-12-02 22:00:00 -0.4 6 Norte 10 Norte 0 -- -- 75
2017-12-02 21:00:00 0.7 7 Norte 9 Norte 0 -- -- 69
2017-12-02 20:00:00 1.3 5 Noroeste 12 Norte 0 -- -- 67
2017-12-02 19:00:00 1.7 9 Norte 15 Norte 0 -- -- 64
2017-12-02 18:00:00 3.6 12 Norte 21 Norte 0 -- -- 58
2017-12-02 17:00:00 7.9 17 Norte 26 Norte 0 -- -- 45
2017-12-02 16:00:00 9 15 Norte 32 Nordeste 0 -- -- 41
2017-12-02 15:00:00 8.8 21 Nordeste 33 Nordeste 0 -- -- 40
2017-12-02 14:00:00 9.9 19 Norte 27 Norte 0 -- -- 38
2017-12-02 13:00:00 8.9 16 Norte 27 Norte 0 -- -- 42
2017-12-02 12:00:00 8 14 Norte 24 Norte 0 -- -- 45
2017-12-02 11:00:00 7.5 14 Norte 21 Norte 0 -- -- 46
2017-12-02 10:00:00 5.8 8 Norte 13 Norte 0 -- -- 52
2017-12-02 09:00:00 -1 7 Noroeste 11 Noroeste 0 -- -- 73
2017-12-02 08:00:00 -2.9 4 Oeste 9 Noroeste 0 -- -- 80
2017-12-02 07:00:00 -2.2 4 Oeste 12 Noroeste 0 -- -- 73
2017-12-02 06:00:00 -1.1 10 Noroeste 14 Norte 0 -- -- 71
2017-12-02 05:00:00 -2.1 10 Noroeste 11 Noroeste 0 -- -- 75
2017-12-02 04:00:00 -2.1 7 Noroeste 11 Noroeste 0 -- -- 72
2017-12-02 03:00:00 -2.3 5 Noroeste 11 Noroeste 0 -- -- 71
2017-12-02 02:00:00 -2.2 8 Noroeste 23 Noroeste 0 -- -- 73
2017-12-02 01:00:00 0 18 Norte 25 Norte 0 -- -- 64
2017-12-02 00:00:00 -2.9 10 Noroeste 14 Norte 0 -- -- 76
2017-12-01 23:00:00 -2.1 10 Norte 14 Norte 0 -- -- 75
2017-12-01 22:00:00 -2.1 10 Norte 13 Norte 0 -- -- 76
2017-12-01 21:00:00 -1.7 13 Norte 18 Norte 0 -- -- 75
2017-12-01 20:00:00 -0.2 12 Nordeste 22 Nordeste 0 -- -- 72
2017-12-01 19:00:00 0.9 11 Nordeste 16 Nordeste 0 -- -- 69
2017-12-01 18:00:00 2.5 13 Nordeste 25 Nordeste 0 -- -- 66
2017-12-01 17:00:00 6.1 19 Nordeste 31 Nordeste 0 -- -- 53
2017-12-01 16:00:00 7.6 18 Nordeste 37 Nordeste 0 -- -- 60
2017-12-01 15:00:00 6.1 28 Nordeste 41 Norte 0 -- -- 71
2017-12-01 14:00:00 9.7 27 Noroeste 50 Noroeste 0 -- -- 52
2017-12-01 13:00:00 10 30 Noroeste 43 Noroeste 0 -- -- 53
2017-12-01 12:00:00 6.6 16 Oeste 25 Sudoeste 0 -- -- 76
2017-12-01 11:00:00 1.1 12 Sudoeste 24 Sudoeste 0 -- -- 100
2017-12-01 10:00:00 -1.1 14 Sudoeste 21 Sudoeste 0 -- -- 98
2017-12-01 09:00:00 -1.9 14 Sudoeste 20 Sudoeste 0 -- -- 96
2017-12-01 08:00:00 -2.6 15 Sudoeste 18 Sudoeste 0 -- -- 98
2017-12-01 07:00:00 -1.9 12 Oeste 19 Sudoeste 0 -- -- 94
2017-12-01 06:00:00 -2.1 13 Sudoeste 16 Sudoeste 0 -- -- 91
2017-12-01 05:00:00 -1.6 11 Oeste 14 Oeste 0 -- -- 92
2017-12-01 04:00:00 -1.6 13 Oeste 15 Oeste 0 -- -- 93
2017-12-01 03:00:00 -1.8 10 Oeste 15 Sudoeste 0 -- -- 97
2017-12-01 02:00:00 -1.1 7 Oeste 11 Oeste 0 -- -- 94
2017-12-01 01:00:00 -1.5 6 Sudoeste 10 Oeste 0 -- -- 88
2017-12-01 00:00:00 -1.6 6 Sudoeste 10 Oeste 0 -- -- 84
2017-11-30 23:00:00 -0.8 6 Oeste 15 Noroeste 0 -- -- 78
2017-11-30 22:00:00 -0.4 9 Noroeste 13 Noroeste 0 -- -- 83
2017-11-30 21:00:00 0.9 8 Oeste 11 Sudoeste 0 -- -- 76
2017-11-30 20:00:00 1.9 7 Oeste 10 Oeste 0 -- -- 68
2017-11-30 19:00:00 3 8 Oeste 12 Oeste 0 -- -- 61
2017-11-30 18:00:00 4 8 Oeste 21 Oeste 0 -- -- 58
2017-11-30 17:00:00 7 16 Oeste 24 Oeste 0 -- -- 48
2017-11-30 16:00:00 9.2 11 Oeste 19 Noroeste 0 -- -- 43
2017-11-30 15:00:00 11.6 4 Norte 15 Nordeste 0 -- -- 37
2017-11-30 14:00:00 8.5 10 Nordeste 23 Norte 0 -- -- 43
2017-11-30 13:00:00 8.3 14 Nordeste 24 Nordeste 0 -- -- 45
2017-11-30 12:00:00 6.8 12 Nordeste 17 Nordeste 0 -- -- 49
2017-11-30 11:00:00 7.5 3 Noroeste 6 Noroeste 0 -- -- 51
2017-11-30 10:00:00 4.7 0 Calma 4 Sur 0 -- -- 61
2017-11-30 09:00:00 -1.8 3 Norte 6 Este 0 -- -- 82
2017-11-30 08:00:00 -0.8 7 Este 12 Nordeste 0 -- -- 79
2017-11-30 07:00:00 -2.4 10 Nordeste 14 Nordeste 0 -- -- 86
2017-11-30 06:00:00 -2.3 8 Nordeste 15 Este 0 -- -- 85
2017-11-30 05:00:00 -2 10 Nordeste 18 Nordeste 0 -- -- 84
2017-11-30 04:00:00 -2.5 13 Nordeste 18 Nordeste 0 -- -- 88
2017-11-30 03:00:00 -1.1 14 Nordeste 20 Nordeste 0 -- -- 81
2017-11-30 02:00:00 -1.4 13 Nordeste 22 Nordeste 0 -- -- 82
2017-11-30 01:00:00 -1.2 14 Nordeste 20 Nordeste 0 -- -- 82
2017-11-30 00:00:00 -0.6 15 Nordeste 19 Nordeste 0 -- -- 79
2017-11-29 23:00:00 -0.5 11 Nordeste 15 Nordeste 0 -- -- 78
2017-11-29 22:00:00 0.1 12 Nordeste 22 Norte 0 -- -- 76
2017-11-29 21:00:00 1.6 15 Nordeste 22 Nordeste 0 -- -- 70
2017-11-29 20:00:00 1.5 12 Nordeste 19 Nordeste 0 -- -- 69
2017-11-29 19:00:00 2.4 14 Nordeste 18 Nordeste 0 -- -- 68
2017-11-29 18:00:00 3.7 13 Norte 19 Nordeste 0 -- -- 63
2017-11-29 17:00:00 6.6 13 Nordeste 25 Norte 0 -- -- 54
2017-11-29 16:00:00 10.5 19 Norte 28 Norte 0 -- -- 44
2017-11-29 15:00:00 6.9 15 Norte 37 Nordeste 0 -- -- 56
2017-11-29 14:00:00 8 15 Nordeste 27 Nordeste 0 -- -- 53
2017-11-29 13:00:00 8.9 10 Norte 19 Norte 0 -- -- 53
2017-11-29 12:00:00 9.6 3 Oeste 9 Noroeste 0 -- -- 59
2017-11-29 11:00:00 9.3 2 Norte 8 Nordeste 0 -- -- 62
2017-11-29 10:00:00 3.4 7 Norte 12 Nordeste 0 -- -- 84
2017-11-29 09:00:00 -1.9 11 Nordeste 14 Este 0 -- -- 98
2017-11-29 08:00:00 -3 13 Nordeste 15 Nordeste 0 -- -- 100
2017-11-29 07:00:00 -3.4 12 Nordeste 14 Nordeste 0 -- -- 99
2017-11-29 06:00:00 -3.2 13 Nordeste 15 Nordeste 0 -- -- 99
2017-11-29 05:00:00 -3.3 11 Este 13 Este 0 -- -- 98
2017-11-29 04:00:00 -2.2 13 Este 15 Nordeste 0 -- -- 95
2017-11-29 03:00:00 -2.3 13 Nordeste 15 Nordeste 0 -- -- 99
2017-11-29 02:00:00 -2.9 12 Nordeste 14 Nordeste 0 -- -- 100
2017-11-29 01:00:00 -2.4 14 Nordeste 17 Este 0 -- -- 98
2017-11-29 00:00:00 -0.9 12 Este 13 Este 0 -- -- 97
2017-11-28 23:00:00 0.2 7 Este 13 Este 0 -- -- 94
2017-11-28 22:00:00 0.5 12 Este 13 Nordeste 0 -- -- 96
2017-11-28 21:00:00 1.6 5 Noroeste 7 Noroeste 0 -- -- 94
2017-11-28 20:00:00 2.2 3 Noroeste 12 Oeste 0 -- -- 93
2017-11-28 19:00:00 3.5 6 Sudoeste 14 Sudoeste 0 -- -- 84
2017-11-28 18:00:00 4.7 13 Sudoeste 15 Sudoeste 0 -- -- 78
2017-11-28 17:00:00 8.4 11 Sudoeste 22 Sudoeste 0 -- -- 64
2017-11-28 16:00:00 8.7 15 Sudoeste 25 Sudoeste 0 -- -- 63
2017-11-28 15:00:00 7.3 10 Sudoeste 22 Sudoeste 0 -- -- 72
2017-11-28 14:00:00 8.8 17 Sudoeste 26 Sudoeste 0 -- -- 64
2017-11-28 13:00:00 7.7 10 Sudoeste 17 Sudoeste 0 -- -- 69
2017-11-28 12:00:00 6.9 13 Sudoeste 20 Sudoeste 0 -- -- 74
2017-11-28 11:00:00 5.7 7 Oeste 12 Oeste 0 -- -- 79
2017-11-28 10:00:00 4 5 Oeste 13 Sudoeste 0 -- -- 83
2017-11-28 09:00:00 1.9 9 Sudoeste 12 Sudoeste 0 -- -- 93
2017-11-28 08:00:00 -0.9 5 Oeste 13 Sudoeste 0 -- -- 96
2017-11-28 07:00:00 0.8 7 Sudoeste 9 Sudoeste 0 -- -- 96
2017-11-28 06:00:00 1 8 Oeste 13 Sudoeste 0 -- -- 94
2017-11-28 05:00:00 0.4 9 Sudoeste 12 Sudoeste 0 -- -- 99
2017-11-28 04:00:00 -0.8 6 Noroeste 6 Noroeste 0 -- -- 98
2017-11-28 03:00:00 0.5 6 Oeste 12 Sudoeste 0 -- -- 91
2017-11-28 02:00:00 1.5 8 Oeste 9 Oeste 0 -- -- 92
2017-11-28 01:00:00 -0.7 5 Oeste 8 Oeste 0 -- -- 94
2017-11-28 00:00:00 1.4 2 Oeste 4 Sudoeste 0 -- -- 88
2017-11-27 23:00:00 1.9 3 Sudoeste 5 Sudoeste 0 -- -- 88
2017-11-27 22:00:00 1 2 Noroeste 5 Norte 0 -- -- 92
2017-11-27 21:00:00 1.1 3 Noroeste 7 Sudoeste 0 -- -- 91
2017-11-27 20:00:00 3.1 5 Sudoeste 6 Sudoeste 0 -- -- 83
2017-11-27 19:00:00 3.7 4 Este 8 Nordeste 0 -- -- 82
2017-11-27 18:00:00 5.9 2 Nordeste 8 Norte 0 -- -- 71
2017-11-27 17:00:00 12.1 2 Noroeste 11 Norte 0 -- -- 51
2017-11-27 16:00:00 12.6 6 Norte 12 Noroeste 0 -- -- 51
2017-11-27 15:00:00 6.9 2 Sudoeste 8 Este 0 -- -- 69
2017-11-27 14:00:00 5.2 6 Este 13 Este 0 -- -- 78
2017-11-27 13:00:00 4.2 7 Este 14 Este 0 -- -- 83
2017-11-27 12:00:00 3.1 10 Este 16 Este 0 -- -- 87
2017-11-27 11:00:00 4.1 9 Este 21 Este 0 -- -- 83
2017-11-27 10:00:00 2.2 7 Este 16 Nordeste 0 -- -- 87
2017-11-27 09:00:00 -1.9 12 Nordeste 14 Nordeste 0 -- -- 99
2017-11-27 08:00:00 -2.6 12 Nordeste 13 Nordeste 0 -- -- 99
2017-11-27 07:00:00 -2.2 11 Nordeste 13 Nordeste 0 -- -- 98
2017-11-27 06:00:00 -2.3 10 Nordeste 17 Nordeste 0 -- -- 98
2017-11-27 05:00:00 -1.8 12 Nordeste 14 Nordeste 0 -- -- 99
2017-11-27 04:00:00 -1.9 10 Nordeste 13 Nordeste 0 -- -- 99
2017-11-27 03:00:00 -1.4 10 Nordeste 14 Nordeste 0 -- -- 96
2017-11-27 02:00:00 -0.8 9 Este 16 Nordeste 0 -- -- 96
2017-11-27 01:00:00 0.2 15 Nordeste 17 Nordeste 0 -- -- 94
2017-11-27 00:00:00 0 17 Nordeste 17 Nordeste 0 -- -- 94
2017-11-26 23:00:00 0 12 Nordeste 18 Nordeste 0 -- -- 95
2017-11-26 22:00:00 1.3 14 Nordeste 20 Nordeste 0 -- -- 91
2017-11-26 21:00:00 2 15 Nordeste 20 Nordeste 0 -- -- 90
2017-11-26 20:00:00 1.4 14 Nordeste 18 Nordeste 0 -- -- 91
2017-11-26 19:00:00 2.2 13 Nordeste 22 Nordeste 0 -- -- 86
2017-11-26 18:00:00 4.1 14 Nordeste 19 Nordeste 0 -- -- 79
2017-11-26 17:00:00 7.5 12 Este 22 Nordeste 0 -- -- 67
2017-11-26 16:00:00 7.8 17 Este 31 Este 0 -- -- 62
2017-11-26 15:00:00 7.8 17 Este 28 Este 0 -- -- 64
2017-11-26 14:00:00 7.4 18 Este 28 Este 0 -- -- 65
2017-11-26 13:00:00 6.5 23 Este 34 Este 0 -- -- 71
2017-11-26 12:00:00 5.9 24 Este 33 Este 0 -- -- 74
2017-11-26 11:00:00 4.1 16 Nordeste 22 Nordeste 0 -- -- 83
2017-11-26 10:00:00 2.6 11 Nordeste 17 Nordeste 0 -- -- 87
2017-11-26 09:00:00 -0.3 11 Nordeste 14 Nordeste 0 -- -- 97
2017-11-26 08:00:00 -1.9 5 Nordeste 13 Nordeste 0 -- -- 100
2017-11-26 07:00:00 -1.6 10 Nordeste 13 Nordeste 0 -- -- 100
2017-11-26 06:00:00 -1.1 10 Nordeste 14 Nordeste 0 -- -- 99
2017-11-26 05:00:00 -0.7 10 Nordeste 14 Nordeste 0 -- -- 98
2017-11-26 04:00:00 -0.1 10 Nordeste 17 Nordeste 0 -- -- 97
2017-11-26 03:00:00 -0.1 8 Nordeste 17 Nordeste 0 -- -- 97
2017-11-26 02:00:00 1.1 15 Nordeste 24 Este 0 -- -- 94
2017-11-26 01:00:00 2.1 20 Nordeste 31 Este 0 -- -- 90
2017-11-26 00:00:00 2.5 22 Este 30 Este 0 -- -- 89
2017-11-25 23:00:00 2.9 18 Nordeste 24 Nordeste 0 -- -- 91
2017-11-25 22:00:00 3.6 14 Nordeste 27 Nordeste 0 -- -- 90
2017-11-25 21:00:00 4.5 15 Nordeste 26 Nordeste 0 -- -- 90
2017-11-25 20:00:00 5.1 14 Nordeste 18 Nordeste 0 -- -- 94
2017-11-25 19:00:00 6.2 13 Este 17 Este 0 -- -- 93
2017-11-25 18:00:00 7.7 10 Este 26 Este 0 -- -- 86
2017-11-25 17:00:00 10.2 17 Este 27 Este 0 -- -- 73
2017-11-25 16:00:00 11.6 18 Nordeste 33 Nordeste 0 -- -- 59
2017-11-25 15:00:00 12.1 23 Este 32 Nordeste 0 -- -- 61
2017-11-25 14:00:00 11.6 21 Nordeste 32 Nordeste 0 -- -- 61
2017-11-25 13:00:00 12 24 Nordeste 35 Nordeste 0 -- -- 66
2017-11-25 12:00:00 10.3 22 Nordeste 32 Nordeste 0 -- -- 71
2017-11-25 11:00:00 9 19 Nordeste 29 Nordeste 0 -- -- 81
2017-11-25 10:00:00 8.6 18 Nordeste 27 Nordeste 0 -- -- 84
2017-11-25 09:00:00 8.1 15 Nordeste 24 Este 0 -- -- 92
2017-11-25 08:00:00 8.7 15 Este 19 Este 0 -- -- 100
2017-11-25 07:00:00 9.4 8 Este 12 Este 0 -- -- 100
2017-11-25 06:00:00 9.5 3 Sur 7 Sur 0.2 -- -- 100
2017-11-25 05:00:00 9.7 3 Sudoeste 11 Oeste 0 -- -- 100
2017-11-25 04:00:00 10.4 5 Oeste 18 Sudoeste 0.4 -- -- 100
2017-11-25 03:00:00 10.7 14 Sudoeste 24 Sudoeste 7 -- -- 100
2017-11-25 02:00:00 10.6 14 Sudoeste 23 Sur 3.4 -- -- 100
2017-11-25 01:00:00 10.8 14 Sudoeste 31 Sudoeste 4 -- -- 100
2017-11-25 00:00:00 11.2 20 Sudoeste 31 Sudoeste 2.4 -- -- 100
2017-11-24 23:00:00 11.3 21 Sudoeste 35 Sudoeste 0.4 -- -- 98
2017-11-24 22:00:00 11.4 16 Sudoeste 30 Sudoeste 0 -- -- 97
2017-11-24 21:00:00 11.4 18 Sudoeste 33 Sudoeste 0 -- -- 96
2017-11-24 20:00:00 11.9 21 Sudoeste 32 Sur 0 -- -- 95
2017-11-24 19:00:00 12.1 14 Sur 24 Sur 0 -- -- 89
2017-11-24 18:00:00 12.4 12 Sudoeste 26 Sudoeste 0 -- -- 85
2017-11-24 17:00:00 12.9 17 Sudoeste 32 Sudoeste 0 -- -- 81
2017-11-24 16:00:00 13 18 Sudoeste 32 Sudoeste 0 -- -- 79
2017-11-24 15:00:00 13 19 Sudoeste 37 Sudoeste 0 -- -- 81
2017-11-24 14:00:00 12.8 21 Sudoeste 35 Sudoeste 0 -- -- 84
2017-11-24 13:00:00 11.8 20 Sudoeste 36 Sudoeste 0 -- -- 89
2017-11-24 12:00:00 11.2 22 Sudoeste 32 Sur 0 -- -- 94
2017-11-24 11:00:00 10.5 19 Sur 31 Sudoeste 0 -- -- 97
2017-11-24 10:00:00 9.9 17 Sur 28 Sudoeste 0 -- -- 99
2017-11-24 09:00:00 9.7 16 Sudoeste 31 Sur 0 -- -- 99
2017-11-24 08:00:00 9.8 20 Sudoeste 40 Sudoeste 0 -- -- 99
2017-11-24 07:00:00 9.9 25 Sudoeste 42 Sudoeste 0 -- -- 100
2017-11-24 06:00:00 9.7 24 Sudoeste 36 Sudoeste 0 -- -- 100
2017-11-24 05:00:00 9.5 24 Sudoeste 46 Sudoeste 0.2 -- -- 99
2017-11-24 04:00:00 9.1 22 Sur 36 Sudoeste 0.6 -- -- 99
2017-11-24 03:00:00 8.5 10 Sur 19 Sudoeste 1.4 -- -- 98
2017-11-24 02:00:00 8.8 12 Sur 22 Sudoeste 1 -- -- 94
2017-11-24 01:00:00 9.9 15 Sudoeste 28 Sur 0 -- -- 83
2017-11-24 00:00:00 10.4 18 Sur 45 Sur 0 -- -- 78
2017-11-23 23:00:00 11.2 16 Sudoeste 32 Sudoeste 0 -- -- 63
2017-11-23 22:00:00 11.8 18 Sur 28 Sudoeste 0 -- -- 61
2017-11-23 21:00:00 12.3 16 Sudoeste 30 Sudoeste 0 -- -- 61
2017-11-23 20:00:00 12.1 17 Sur 31 Sur 0 -- -- 66
2017-11-23 19:00:00 12.1 14 Sur 24 Sur 0 -- -- 73
2017-11-23 18:00:00 12.2 12 Sudoeste 27 Sur 0 -- -- 76
2017-11-23 17:00:00 13.7 19 Sudoeste 42 Sur 0 -- -- 71
2017-11-23 16:00:00 13.5 24 Sudoeste 39 Sur 0 -- -- 81
2017-11-23 15:00:00 12.6 14 Sudoeste 39 Sudoeste 0.2 -- -- 93
2017-11-23 14:00:00 13 21 Sudoeste 33 Sur 0 -- -- 89
2017-11-23 13:00:00 11.4 14 Sudoeste 32 Sudoeste 0 -- -- 97
2017-11-23 12:00:00 10.6 18 Sudoeste 31 Sur 0.2 -- -- 99
2017-11-23 11:00:00 10.1 19 Sudoeste 30 Sudoeste 0.2 -- -- 99
2017-11-23 10:00:00 9.7 20 Sudoeste 33 Sudoeste 0 -- -- 98
2017-11-23 09:00:00 9.7 19 Sudoeste 31 Sudoeste 0 -- -- 94
2017-11-23 08:00:00 9.3 20 Sudoeste 35 Sudoeste 0 -- -- 93
2017-11-23 07:00:00 9.1 18 Sudoeste 33 Sudoeste 0 -- -- 92
2017-11-23 06:00:00 9.3 19 Sudoeste 35 Sur 0 -- -- 86
2017-11-23 05:00:00 9.2 19 Sudoeste 33 Sudoeste 0.2 -- -- 85
2017-11-23 04:00:00 8.9 19 Sudoeste 32 Sudoeste 0.4 -- -- 79
2017-11-23 03:00:00 11.2 18 Sudoeste 31 Sudoeste 0 -- -- 54
2017-11-23 02:00:00 10.9 13 Sur 27 Sudoeste 0 -- -- 54
2017-11-23 01:00:00 11.1 18 Sur 34 Sudoeste 0 -- -- 55
2017-11-23 00:00:00 10.7 14 Sudoeste 32 Sudoeste 0 -- -- 55
2017-11-22 23:00:00 10.3 18 Sudoeste 33 Sur 0 -- -- 53
2017-11-22 22:00:00 11.4 21 Sudoeste 42 Sur 0 -- -- 49
2017-11-22 21:00:00 11.7 27 Sudoeste 47 Sudoeste 0 -- -- 47
2017-11-22 20:00:00 12.2 29 Sudoeste 50 Sudoeste 0 -- -- 46
2017-11-22 19:00:00 12.9 30 Sur 50 Sur 0 -- -- 43
2017-11-22 18:00:00 13.5 20 Sur 37 Sur 0 -- -- 42
2017-11-22 17:00:00 14.5 18 Sudoeste 34 Sudoeste 0 -- -- 40
2017-11-22 16:00:00 14.7 17 Sudoeste 31 Sudoeste 0 -- -- 40
2017-11-22 15:00:00 15.1 17 Sudoeste 29 Sur 0 -- -- 40
2017-11-22 14:00:00 14.5 17 Sudoeste 33 Sudoeste 0 -- -- 41
2017-11-22 13:00:00 14 21 Sudoeste 32 Sudoeste 0 -- -- 42
2017-11-22 12:00:00 12.6 18 Sudoeste 30 Sur 0 -- -- 45
2017-11-22 11:00:00 11.4 7 Sudeste 13 Este 0 -- -- 49
2017-11-22 10:00:00 5.9 8 Este 16 Este 0 -- -- 66
2017-11-22 09:00:00 2.2 10 Nordeste 13 Este 0 -- -- 79
2017-11-22 08:00:00 1 9 Nordeste 14 Este 0 -- -- 81
2017-11-22 07:00:00 3.2 9 Sudeste 12 Este 0 -- -- 72
2017-11-22 06:00:00 1.9 10 Este 12 Este 0 -- -- 78
2017-11-22 05:00:00 2.2 12 Este 13 Este 0 -- -- 76
2017-11-22 04:00:00 2 10 Nordeste 13 Nordeste 0 -- -- 79
2017-11-22 03:00:00 2.8 8 Este 9 Nordeste 0 -- -- 76
2017-11-22 02:00:00 3.8 6 Este 10 Nordeste 0 -- -- 71
2017-11-22 01:00:00 4.8 4 Este 10 Sudeste 0 -- -- 64
2017-11-22 00:00:00 4.7 5 Este 11 Este 0 -- -- 66
2017-11-21 23:00:00 4.2 9 Este 13 Este 0 -- -- 69
2017-11-21 22:00:00 7.8 9 Sur 20 Sudeste 0 -- -- 56
2017-11-21 21:00:00 7.9 14 Sudeste 22 Sudeste 0 -- -- 55
2017-11-21 20:00:00 7.8 12 Este 18 Este 0 -- -- 58
2017-11-21 19:00:00 11.3 3 Norte 4 Noroeste 0 -- -- 43
2017-11-21 18:00:00 13.2 0 Calma 12 Oeste 0 -- -- 39
2017-11-21 17:00:00 16.3 10 Sudoeste 18 Sudoeste 0 -- -- 32
2017-11-21 16:00:00 17.5 9 Sudoeste 17 Sudoeste 0 -- -- 29
2017-11-21 15:00:00 17.5 8 Sur 17 Sur 0 -- -- 27
2017-11-21 14:00:00 16.5 10 Sur 18 Sur 0 -- -- 32
2017-11-21 13:00:00 16.7 4 Sudeste 17 Este 0 -- -- 35
2017-11-21 12:00:00 13.2 5 Nordeste 12 Este 0 -- -- 43
2017-11-21 11:00:00 9.6 8 Este 10 Nordeste 0 -- -- 52
2017-11-21 10:00:00 6.1 6 Este 10 Nordeste 0 -- -- 61
2017-11-21 09:00:00 2.8 7 Este 13 Este 0 -- -- 68
2017-11-21 08:00:00 1.7 9 Este 12 Este 0 -- -- 73
2017-11-21 07:00:00 1.1 9 Este 11 Este 0 -- -- 69
2017-11-21 06:00:00 1.8 8 Este 11 Este 0 -- -- 67
2017-11-21 05:00:00 2.3 11 Este 13 Este 0 -- -- 62
2017-11-21 04:00:00 4.9 0 Calma 5 Este 0 -- -- 56
2017-11-21 03:00:00 4.5 4 Este 5 Este 0 -- -- 57
2017-11-21 02:00:00 6.5 3 Sudeste 5 Sudeste 0 -- -- 51
2017-11-21 01:00:00 5.4 3 Sudeste 5 Este 0 -- -- 52
2017-11-21 00:00:00 5.2 3 Este 8 Sudeste 0 -- -- 54
2017-11-20 23:00:00 6.4 7 Este 10 Este 0 -- -- 48
2017-11-20 22:00:00 6.2 9 Nordeste 10 Nordeste 0 -- -- 50
2017-11-20 21:00:00 8.1 3 Este 6 Oeste 0 -- -- 41
2017-11-20 20:00:00 8.2 6 Oeste 7 Oeste 0 -- -- 42
2017-11-20 19:00:00 10.2 2 Sudoeste 8 Noroeste 0 -- -- 36
2017-11-20 18:00:00 12.6 6 Noroeste 12 Sudoeste 0 -- -- 31
2017-11-20 17:00:00 15.9 9 Oeste 15 Sudoeste 0 -- -- 24
2017-11-20 16:00:00 17.6 8 Sur 13 Sudoeste 0 -- -- 21
2017-11-20 15:00:00 18 9 Sur 16 Sudoeste 0 -- -- 20
2017-11-20 14:00:00 17.6 8 Sudoeste 13 Sudoeste 0 -- -- 21
2017-11-20 13:00:00 17 6 Sudoeste 12 Sur 0 -- -- 23
2017-11-20 12:00:00 15.5 6 Sudeste 10 Sudeste 0 -- -- 29
2017-11-20 11:00:00 12.9 3 Este 8 Este 0 -- -- 33
2017-11-20 10:00:00 9.5 6 Nordeste 12 Este 0 -- -- 37
2017-11-20 09:00:00 4 9 Este 15 Nordeste 0 -- -- 44
2017-11-20 08:00:00 1 14 Nordeste 14 Nordeste 0 -- -- 51
2017-11-20 07:00:00 1.1 12 Este 14 Este 0 -- -- 51
2017-11-20 06:00:00 2.1 13 Este 14 Este 0 -- -- 44
2017-11-20 05:00:00 2.2 13 Este 17 Este 0 -- -- 41
2017-11-20 04:00:00 2.9 15 Este 16 Este 0 -- -- 39
2017-11-20 03:00:00 4.6 9 Nordeste 11 Nordeste 0 -- -- 32
2017-11-20 02:00:00 4.3 0 Calma 10 Nordeste 0 -- -- 32
2017-11-20 01:00:00 4.5 9 Nordeste 13 Nordeste 0 -- -- 31
2017-11-20 00:00:00 6.3 11 Nordeste 12 Nordeste 0 -- -- 26
2017-11-19 23:00:00 4.5 10 Norte 12 Nordeste 0 -- -- 34
2017-11-19 22:00:00 5.8 10 Nordeste 13 Nordeste 0 -- -- 33
2017-11-19 21:00:00 7.9 8 Nordeste 9 Nordeste 0 -- -- 26
2017-11-19 20:00:00 8.8 8 Este 14 Este 0 -- -- 27
2017-11-19 19:00:00 8.7 12 Este 14 Este 0 -- -- 27
2017-11-19 18:00:00 11.7 7 Este 12 Este 0 -- -- 22
2017-11-19 17:00:00 16.2 8 Este 14 Este 0 -- -- 16
2017-11-19 16:00:00 16.6 10 Este 17 Nordeste 0 -- -- 14
2017-11-19 15:00:00 16.3 12 Nordeste 22 Este 0 -- -- 16
2017-11-19 14:00:00 15.1 15 Nordeste 23 Nordeste 0 -- -- 23
2017-11-19 13:00:00 14 15 Este 23 Este 0 -- -- 33
2017-11-19 12:00:00 11.8 13 Este 19 Nordeste 0 -- -- 45
2017-11-19 11:00:00 9.4 14 Nordeste 20 Nordeste 0 -- -- 56
2017-11-19 10:00:00 7 7 Nordeste 13 Nordeste 0 -- -- 74
2017-11-19 09:00:00 3.8 8 Este 11 Este 0 -- -- 80
2017-11-19 08:00:00 1.7 10 Nordeste 12 Nordeste 0 -- -- 80
2017-11-19 07:00:00 2.1 7 Este 14 Nordeste 0 -- -- 81
2017-11-19 06:00:00 1.8 13 Nordeste 15 Nordeste 0 -- -- 88
2017-11-19 05:00:00 3.1 15 Nordeste 23 Nordeste 0 -- -- 85
2017-11-19 04:00:00 3.7 17 Nordeste 20 Nordeste 0 -- -- 85
2017-11-19 03:00:00 2.9 17 Nordeste 21 Nordeste 0 -- -- 90
2017-11-19 02:00:00 3.4 13 Nordeste 15 Nordeste 0 -- -- 91
2017-11-19 01:00:00 3.3 10 Nordeste 21 Nordeste 0 -- -- 88
2017-11-19 00:00:00 4.1 17 Nordeste 19 Nordeste 0 -- -- 82
2017-11-18 23:00:00 4.1 15 Nordeste 18 Nordeste 0 -- -- 82
2017-11-18 22:00:00 5.5 16 Nordeste 17 Nordeste 0 -- -- 76
2017-11-18 21:00:00 6.5 11 Nordeste 13 Nordeste 0 -- -- 73
2017-11-18 20:00:00 9.5 6 Nordeste 8 Nordeste 0 -- -- 62
2017-11-18 19:00:00 10.8 7 Este 8 Este 0 -- -- 58
2017-11-18 18:00:00 12.1 7 Este 14 Este 0 -- -- 53
2017-11-18 17:00:00 15.7 10 Este 24 Este 0 -- -- 42
2017-11-18 16:00:00 16.5 14 Nordeste 24 Este 0 -- -- 38
2017-11-18 15:00:00 16.4 17 Este 28 Nordeste 0 -- -- 38
2017-11-18 14:00:00 15.7 21 Este 28 Nordeste 0 -- -- 43
2017-11-18 13:00:00 14.8 21 Este 31 Este 0 -- -- 46
2017-11-18 12:00:00 13.3 21 Nordeste 29 Nordeste 0 -- -- 49
2017-11-18 11:00:00 11.2 21 Nordeste 29 Nordeste 0 -- -- 52
2017-11-18 10:00:00 9 14 Nordeste 21 Nordeste 0 -- -- 55
2017-11-18 09:00:00 5.4 12 Nordeste 18 Nordeste 0 -- -- 64
2017-11-18 08:00:00 4.2 15 Nordeste 20 Nordeste 0 -- -- 68
2017-11-18 07:00:00 2.9 13 Nordeste 16 Nordeste 0 -- -- 73
2017-11-18 06:00:00 4.2 12 Nordeste 15 Nordeste 0 -- -- 69
2017-11-18 05:00:00 4.2 13 Nordeste 15 Nordeste 0 -- -- 68
2017-11-18 04:00:00 4.4 13 Nordeste 17 Este 0 -- -- 65
2017-11-18 03:00:00 4.1 14 Este 17 Este 0 -- -- 68
2017-11-18 02:00:00 4.1 14 Nordeste 15 Nordeste 0 -- -- 68
2017-11-18 01:00:00 5.1 13 Nordeste 15 Nordeste 0 -- -- 67
2017-11-18 00:00:00 6.4 15 Nordeste 17 Nordeste 0 -- -- 64
2017-11-17 23:00:00 7.2 5 Nordeste 10 Nordeste 0 -- -- 62
2017-11-17 22:00:00 8.4 9 Nordeste 10 Este 0 -- -- 57
2017-11-17 21:00:00 9.2 11 Este 13 Este 0 -- -- 53
2017-11-17 20:00:00 9.6 13 Este 13 Este 0 -- -- 52
2017-11-17 19:00:00 10.3 11 Este 12 Este 0 -- -- 50
2017-11-17 18:00:00 14.1 7 Este 8 Este 0 -- -- 40
2017-11-17 17:00:00 18.1 3 Este 7 Este 0 -- -- 32
2017-11-17 16:00:00 18.1 6 Sudeste 13 Este 0 -- -- 31
2017-11-17 15:00:00 19.1 5 Nordeste 14 Nordeste 0 -- -- 30
2017-11-17 14:00:00 17.5 10 Nordeste 19 Este 0 -- -- 32
2017-11-17 13:00:00 15.9 14 Este 22 Este 0 -- -- 36
2017-11-17 12:00:00 15.7 14 Este 22 Este 0 -- -- 36
2017-11-17 11:00:00 13.4 13 Nordeste 17 Nordeste 0 -- -- 40
2017-11-17 10:00:00 8.9 13 Nordeste 16 Nordeste 0 -- -- 54
2017-11-17 09:00:00 7.3 16 Nordeste 18 Nordeste 0 -- -- 59
2017-11-17 08:00:00 4.7 16 Este 17 Este 0 -- -- 66
2017-11-17 07:00:00 4.2 15 Este 17 Nordeste 0 -- -- 66
2017-11-17 06:00:00 6 15 Nordeste 16 Nordeste 0 -- -- 60
2017-11-17 05:00:00 6.6 15 Nordeste 16 Nordeste 0 -- -- 56
2017-11-17 04:00:00 6.2 13 Nordeste 14 Nordeste 0 -- -- 57
2017-11-17 03:00:00 6.2 11 Nordeste 13 Nordeste 0 -- -- 59
2017-11-17 02:00:00 5.7 12 Nordeste 13 Nordeste 0 -- -- 62
2017-11-17 01:00:00 7 6 Nordeste 9 Nordeste 0 -- -- 56
2017-11-17 00:00:00 8.4 3 Nordeste 6 Nordeste 0 -- -- 50
2017-11-16 23:00:00 8.3 4 Nordeste 6 Norte 0 -- -- 52
2017-11-16 22:00:00 6.8 5 Este 8 Nordeste 0 -- -- 58
2017-11-16 21:00:00 8.4 9 Nordeste 13 Este 0 -- -- 52
2017-11-16 20:00:00 8 11 Este 14 Este 0 -- -- 54
2017-11-16 19:00:00 10.4 11 Este 13 Este 0 -- -- 45
2017-11-16 18:00:00 12.7 8 Este 11 Este 0 -- -- 41
2017-11-16 17:00:00 17.3 8 Este 13 Este 0 -- -- 29
2017-11-16 16:00:00 18 11 Este 17 Este 0 -- -- 28
2017-11-16 15:00:00 17.9 10 Este 17 Este 0 -- -- 30
2017-11-16 14:00:00 17.4 9 Nordeste 18 Este 0 -- -- 31
2017-11-16 13:00:00 16.1 9 Este 17 Nordeste 0 -- -- 35
2017-11-16 12:00:00 14.9 11 Nordeste 16 Nordeste 0 -- -- 36
2017-11-16 11:00:00 12.8 7 Nordeste 10 Nordeste 0 -- -- 44
2017-11-16 10:00:00 12.7 2 Nordeste 8 Este 0 -- -- 44
2017-11-16 09:00:00 6 6 Nordeste 9 Este 0 -- -- 56
2017-11-16 08:00:00 2.5 7 Nordeste 14 Este 0 -- -- 64
2017-11-16 07:00:00 2.3 13 Este 14 Este 0 -- -- 62
2017-11-16 06:00:00 3.7 8 Este 17 Este 0 -- -- 56
2017-11-16 05:00:00 3.7 14 Este 15 Este 0 -- -- 56
2017-11-16 04:00:00 3.6 13 Este 14 Este 0 -- -- 58
2017-11-16 03:00:00 5.2 9 Nordeste 9 Nordeste 0 -- -- 50
2017-11-16 02:00:00 4.7 5 Nordeste 9 Nordeste 0 -- -- 52
2017-11-16 01:00:00 6.4 5 Nordeste 6 Nordeste 0 -- -- 47
2017-11-16 00:00:00 5.7 6 Nordeste 8 Nordeste 0 -- -- 52
2017-11-15 23:00:00 7 2 Norte 6 Noroeste 0 -- -- 47
2017-11-15 22:00:00 6.9 0 Calma 6 Sudoeste 0 -- -- 51
2017-11-15 21:00:00 7.2 3 Sudoeste 8 Sudeste 0 -- -- 45
2017-11-15 20:00:00 8.6 7 Sudeste 10 Sudeste 0 -- -- 41
2017-11-15 19:00:00 9.7 7 Sudeste 10 Sudeste 0 -- -- 40
2017-11-15 18:00:00 13.6 3 Sur 8 Sudeste 0 -- -- 35
2017-11-15 17:00:00 17.4 4 Este 8 Sudeste 0 -- -- 26
2017-11-15 16:00:00 18.7 4 Nordeste 10 Nordeste 0 -- -- 23
2017-11-15 15:00:00 18.5 4 Nordeste 17 Nordeste 0 -- -- 24
2017-11-15 14:00:00 16 5 Este 11 Este 0 -- -- 26
2017-11-15 13:00:00 14 7 Nordeste 14 Este 0 -- -- 30
2017-11-15 12:00:00 12.9 6 Este 13 Sudeste 0 -- -- 34
2017-11-15 11:00:00 11.5 5 Este 10 Este 0 -- -- 36
2017-11-15 10:00:00 7.5 4 Nordeste 8 Este 0 -- -- 46
2017-11-15 09:00:00 2.7 4 Nordeste 6 Noroeste 0 -- -- 62
2017-11-15 08:00:00 0 2 Sudeste 5 Sur 0 -- -- 64
2017-11-15 07:00:00 0.4 4 Sudeste 17 Este 0 -- -- 63
2017-11-15 06:00:00 1.4 11 Este 18 Este 0 -- -- 56
2017-11-15 05:00:00 2.3 11 Nordeste 26 Nordeste 0 -- -- 50
2017-11-15 04:00:00 2.6 18 Nordeste 25 Nordeste 0 -- -- 51
2017-11-15 03:00:00 3 21 Nordeste 28 Nordeste 0 -- -- 53
2017-11-15 02:00:00 3.8 19 Nordeste 33 Nordeste 0 -- -- 51
2017-11-15 01:00:00 4 22 Nordeste 31 Este 0 -- -- 55
2017-11-15 00:00:00 3.2 19 Nordeste 24 Este 0 -- -- 68